Terminal Aerodrome Forecast
Issued by NWS

Home | Current Version | Previous Version | Text Only | Print | Product List | Glossary On
Versions: 1 2 3 4 5 6 7 8 9 10 11 12 13
667
FTAK31 PAJN 221720
TAFAGY
TAF
PAGY 221720Z 2218/2318 VRB03KT P6SM -SHRA OVC050
     FM222000 04004KT P6SM OVC035
     FM230900 21015G25KT P6SM -SHRA OVC030
      AMD LTD TO CLD VIS AND WIND=

USA.gov is the U.S. government's official web portal to all federal, state and local government web resources and services.